Language: 


Des rapports , des résumés tant et plus, au choix de chacun....


Données Historiques de Météogheer
Journalier Rapport pour Février 17, 2018 Unitée:  Les deux    Impériale   Métrique
Suivant Jour »
Journalier Hebdomadaire Mensuel Annuel Sur mesure
  Max: Min: Moyenne:
Température: 51.6 °F /  10.9 °C 28.9 °F /  -1.7 °C 38.8 °F /  3.8 °C
Point de rosée: 39.2 °F /  4.0 °C 24.8 °F /  -4.0 °C 32.4 °F /  0.2 °C
Humidité: 89% 52% 78%
Vent: 7.4mph /  11.9km/h - 0.9mph /  1.5km/h
Rafales: 8.1mph /  13.0km/h - -
Vent- - SSE
Pression: 30.2 in /  1023.9 hPa 30.1 in /  1018.2 hPa -
Pluie: 0 in /  0.0 mm    
Historical Graphs
 
 
Données tabulaires pour Février 17, 2018
Heure Température Point de rosée Pression Vent Vent Rafales Humidité Pluie Taux (Horaire) Conditions
00:02 35.1 °F /  1.7 °C 32 °F /  0.0 °C 30.2in /  1022.9hPa Calm     86% 0in /  0.0mm
00:07 35.2 °F /  1.8 °C 32 °F /  0.0 °C 30.2in /  1022.9hPa Calm     86% 0in /  0.0mm
00:12 35.4 °F /  1.9 °C 32 °F /  0.0 °C 30.2in /  1022.9hPa Calm     86% 0in /  0.0mm
00:17 35.4 °F /  1.9 °C 32 °F /  0.0 °C 30.2in /  1022.9hPa Calm     86% 0in /  0.0mm
00:22 35.6 °F /  2.0 °C 32 °F /  0.0 °C 30.2in /  1022.9hPa Calm     86% 0in /  0.0mm
00:27 35.6 °F /  2.0 °C 32 °F /  0.0 °C 30.2in /  1022.9hPa Calm     86% 0in /  0.0mm
00:32 35.6 °F /  2.0 °C 32 °F /  0.0 °C 30.2in /  1022.9hPa NNE 2.9mph /  4.7km/h 2.9mph /  4.7km/h 86% 0in /  0.0mm
00:37 35.4 °F /  1.9 °C 32 °F /  0.0 °C 30.2in /  1022.9hPa Calm   4.3mph /  6.9km/h 86% 0in /  0.0mm
00:43 35.4 °F /  1.9 °C 32 °F /  0.0 °C 30.2in /  1022.9hPa Calm   4.3mph /  6.9km/h 86% 0in /  0.0mm
00:48 35.4 °F /  1.9 °C 32 °F /  0.0 °C 30.2in /  1021.9hPa Calm     86% 0in /  0.0mm
00:53 35.4 °F /  1.9 °C 32 °F /  0.0 °C 30.2in /  1021.9hPa Calm   1.6mph /  2.6km/h 86% 0in /  0.0mm
00:58 35.4 °F /  1.9 °C 32 °F /  0.0 °C 30.2in /  1021.9hPa Calm   1.6mph /  2.6km/h 86% 0in /  0.0mm
01:03 35.2 °F /  1.8 °C 32 °F /  0.0 °C 30.2in /  1022.9hPa Calm     86% 0in /  0.0mm
01:08 35.2 °F /  1.8 °C 32 °F /  0.0 °C 30.2in /  1022.9hPa Calm     86% 0in /  0.0mm
01:13 35.2 °F /  1.8 °C 32 °F /  0.0 °C 30.2in /  1022.9hPa Calm     86% 0in /  0.0mm
01:18 35.1 °F /  1.7 °C 32 °F /  0.0 °C 30.2in /  1021.9hPa Calm   0.9mph /  1.4km/h 86% 0in /  0.0mm
01:23 34.9 °F /  1.6 °C 32 °F /  0.0 °C 30.2in /  1021.9hPa Calm   2.9mph /  4.7km/h 86% 0in /  0.0mm
01:28 34.9 °F /  1.6 °C 32 °F /  0.0 °C 30.2in /  1021.9hPa Calm   2.9mph /  4.7km/h 86% 0in /  0.0mm
01:33 34.9 °F /  1.6 °C 32 °F /  0.0 °C 30.2in /  1021.9hPa Calm   1.6mph /  2.6km/h 86% 0in /  0.0mm
01:38 34.7 °F /  1.5 °C 32 °F /  0.0 °C 30.2in /  1021.9hPa Calm     86% 0in /  0.0mm
01:43 34.7 °F /  1.5 °C 32 °F /  0.0 °C 30.2in /  1021.9hPa Calm   1.6mph /  2.6km/h 86% 0in /  0.0mm
01:48 34.7 °F /  1.5 °C 32 °F /  0.0 °C 30.2in /  1021.9hPa Calm   1.6mph /  2.6km/h 86% 0in /  0.0mm
01:53 34.7 °F /  1.5 °C 32 °F /  0.0 °C 30.2in /  1021.9hPa NNE 2.7mph /  4.3km/h 3.1mph /  5.0km/h 86% 0in /  0.0mm
01:58 34.7 °F /  1.5 °C 32 °F /  0.0 °C 30.2in /  1021.9hPa Calm   3.1mph /  5.0km/h 86% 0in /  0.0mm
02:03 34.7 °F /  1.5 °C 32 °F /  0.0 °C 30.2in /  1021.9hPa Calm   1.3mph /  2.1km/h 86% 0in /  0.0mm
02:08 34.7 °F /  1.5 °C 32 °F /  0.0 °C 30.2in /  1021.9hPa Calm   1.3mph /  2.1km/h 87% 0in /  0.0mm
02:13 34.7 °F /  1.5 °C 32 °F /  0.0 °C 30.2in /  1021.9hPa Calm   2.9mph /  4.7km/h 87% 0in /  0.0mm
02:18 34.7 °F /  1.5 °C 32 °F /  0.0 °C 30.2in /  1021.9hPa Calm   4mph /  6.4km/h 87% 0in /  0.0mm
02:23 34.7 °F /  1.5 °C 32 °F /  0.0 °C 30.2in /  1021.9hPa Calm   4mph /  6.4km/h 87% 0in /  0.0mm
02:28 34.7 °F /  1.5 °C 32 °F /  0.0 °C 30.2in /  1021.9hPa Calm   3.8mph /  6.1km/h 87% 0in /  0.0mm
02:33 34.5 °F /  1.4 °C 32 °F /  0.0 °C 30.2in /  1020.9hPa Calm   3.1mph /  5.0km/h 87% 0in /  0.0mm
02:38 34.5 °F /  1.4 °C 32 °F /  0.0 °C 30.2in /  1020.9hPa Calm     87% 0in /  0.0mm
02:43 34.5 °F /  1.4 °C 32 °F /  0.0 °C 30.2in /  1020.9hPa Calm   2.5mph /  4.0km/h 87% 0in /  0.0mm
02:49 34.5 °F /  1.4 °C 32 °F /  0.0 °C 30.2in /  1020.9hPa NE 3.6mph /  5.8km/h 4.3mph /  6.9km/h 87% 0in /  0.0mm
02:54 34.7 °F /  1.5 °C 32 °F /  0.0 °C 30.2in /  1020.9hPa Calm   4.3mph /  6.9km/h 88% 0in /  0.0mm
02:59 34.9 °F /  1.6 °C 32 °F /  0.0 °C 30.2in /  1020.9hPa Calm   3.8mph /  6.1km/h 88% 0in /  0.0mm
03:04 34.9 °F /  1.6 °C 32 °F /  0.0 °C 30.2in /  1020.9hPa Calm   4.3mph /  6.9km/h 88% 0in /  0.0mm
03:09 34.9 °F /  1.6 °C 32 °F /  0.0 °C 30.2in /  1020.9hPa Calm   4.3mph /  6.9km/h 88% 0in /  0.0mm
03:14 34.9 °F /  1.6 °C 32 °F /  0.0 °C 30.1in /  1019.9hPa Calm   4.3mph /  6.9km/h 88% 0in /  0.0mm
03:19 34.9 °F /  1.6 °C 32 °F /  0.0 °C 30.1in /  1019.9hPa Calm   4.3mph /  6.9km/h 88% 0in /  0.0mm
03:24 34.9 °F /  1.6 °C 32 °F /  0.0 °C 30.1in /  1019.9hPa NNE 3.1mph /  5.0km/h 4.7mph /  7.6km/h 88% 0in /  0.0mm
03:29 34.9 °F /  1.6 °C 32 °F /  0.0 °C 30.2in /  1020.9hPa Calm   4.7mph /  7.6km/h 88% 0in /  0.0mm
03:34 34.9 °F /  1.6 °C 32 °F /  0.0 °C 30.2in /  1020.9hPa Calm   4mph /  6.4km/h 88% 0in /  0.0mm
03:39 34.9 °F /  1.6 °C 32 °F /  0.0 °C 30.2in /  1020.9hPa Calm   3.8mph /  6.1km/h 88% 0in /  0.0mm
03:44 35.1 °F /  1.7 °C 32 °F /  0.0 °C 30.2in /  1021.9hPa Calm   3.8mph /  6.1km/h 88% 0in /  0.0mm
03:49 35.1 °F /  1.7 °C 32 °F /  0.0 °C 30.2in /  1021.9hPa Calm   3.4mph /  5.5km/h 88% 0in /  0.0mm
03:54 34.9 °F /  1.6 °C 32 °F /  0.0 °C 30.2in /  1021.9hPa Calm   1.1mph /  1.8km/h 87% 0in /  0.0mm
03:59 34.9 °F /  1.6 °C 32 °F /  0.0 °C 30.2in /  1020.9hPa Calm     87% 0in /  0.0mm
04:04 34.9 °F /  1.6 °C 32 °F /  0.0 °C 30.2in /  1020.9hPa Calm     87% 0in /  0.0mm
04:09 34.9 °F /  1.6 °C 32 °F /  0.0 °C 30.2in /  1020.9hPa Calm     87% 0in /  0.0mm
04:14 34.9 °F /  1.6 °C 32 °F /  0.0 °C 30.1in /  1019.9hPa Calm   3.8mph /  6.1km/h 87% 0in /  0.0mm
04:19 34.7 °F /  1.5 °C 32 °F /  0.0 °C 30.1in /  1019.9hPa Calm   3.8mph /  6.1km/h 87% 0in /  0.0mm
04:24 34.7 °F /  1.5 °C 32 °F /  0.0 °C 30.1in /  1019.9hPa Calm   3.8mph /  6.1km/h 87% 0in /  0.0mm
04:29 34.7 °F /  1.5 °C 32 °F /  0.0 °C 30.1in /  1019.9hPa Calm   3.8mph /  6.1km/h 87% 0in /  0.0mm
04:34 34.7 °F /  1.5 °C 32 °F /  0.0 °C 30.1in /  1019.9hPa Calm   3.8mph /  6.1km/h 87% 0in /  0.0mm
04:39 34.5 °F /  1.4 °C 32 °F /  0.0 °C 30.1in /  1019.9hPa Calm   2.2mph /  3.5km/h 87% 0in /  0.0mm
04:44 34.5 °F /  1.4 °C 32 °F /  0.0 °C 30.1in /  1019.9hPa NE 2.7mph /  4.3km/h 4mph /  6.4km/h 88% 0in /  0.0mm
04:49 34.7 °F /  1.5 °C 32 °F /  0.0 °C 30.1in /  1019.9hPa Calm   4mph /  6.4km/h 88% 0in /  0.0mm
04:55 34.7 °F /  1.5 °C 32 °F /  0.0 °C 30.1in /  1019.9hPa Calm   4mph /  6.4km/h 88% 0in /  0.0mm
05:00 34.9 °F /  1.6 °C 32 °F /  0.0 °C 30.1in /  1019.9hPa NNE 4mph /  6.4km/h 4mph /  6.4km/h 88% 0in /  0.0mm
05:05 34.9 °F /  1.6 °C 32 °F /  0.0 °C 30.1in /  1019.9hPa North 2mph /  3.2km/h 4.7mph /  7.6km/h 88% 0in /  0.0mm
05:10 34.7 °F /  1.5 °C 32 °F /  0.0 °C 30.1in /  1019.9hPa North 3.1mph /  5.0km/h 5.4mph /  8.7km/h 88% 0in /  0.0mm
05:15 34.7 °F /  1.5 °C 32 °F /  0.0 °C 30.1in /  1019.9hPa Calm   5.4mph /  8.7km/h 88% 0in /  0.0mm
05:20 34.9 °F /  1.6 °C 32 °F /  0.0 °C 30.1in /  1019.9hPa Calm   5.4mph /  8.7km/h 88% 0in /  0.0mm
05:25 34.7 °F /  1.5 °C 32 °F /  0.0 °C 30.1in /  1019.9hPa NNE 6.3mph /  10.1km/h 6.3mph /  10.1km/h 88% 0in /  0.0mm
05:30 34.7 °F /  1.5 °C 32 °F /  0.0 °C 30.1in /  1018.8hPa NNE 5.4mph /  8.7km/h 6.3mph /  10.1km/h 88% 0in /  0.0mm
05:35 34.7 °F /  1.5 °C 32 °F /  0.0 °C 30.1in /  1018.8hPa NNE 5.6mph /  9.0km/h 6.3mph /  10.1km/h 88% 0in /  0.0mm
05:40 34.5 °F /  1.4 °C 32 °F /  0.0 °C 30.1in /  1018.8hPa North 3.8mph /  6.1km/h 6.3mph /  10.1km/h 88% 0in /  0.0mm
05:45 34.5 °F /  1.4 °C 32 °F /  0.0 °C 30.1in /  1018.8hPa North 5.4mph /  8.7km/h 5.6mph /  9.0km/h 88% 0in /  0.0mm
05:50 34.5 °F /  1.4 °C 32 °F /  0.0 °C 30.1in /  1018.8hPa NE 4mph /  6.4km/h 5.4mph /  8.7km/h 88% 0in /  0.0mm
05:55 34.5 °F /  1.4 °C 32 °F /  0.0 °C 30.1in /  1018.8hPa NNE 2.9mph /  4.7km/h 5.4mph /  8.7km/h 88% 0in /  0.0mm
06:00 34.3 °F /  1.3 °C 32 °F /  0.0 °C 30.1in /  1018.8hPa Calm   4mph /  6.4km/h 88% 0in /  0.0mm
06:05 34.3 °F /  1.3 °C 32 °F /  0.0 °C 30.1in /  1018.8hPa Calm   3.8mph /  6.1km/h 88% 0in /  0.0mm
06:10 34.3 °F /  1.3 °C 32 °F /  0.0 °C 30.1in /  1018.8hPa Calm     87% 0in /  0.0mm
06:15 34.2 °F /  1.2 °C 32 °F /  0.0 °C 30.1in /  1018.2hPa Calm   4mph /  6.4km/h 87% 0in /  0.0mm
06:21 34.2 °F /  1.2 °C 32 °F /  0.0 °C 30.1in /  1018.2hPa Calm   4mph /  6.4km/h 88% 0in /  0.0mm
06:26 34 °F /  1.1 °C 30.2 °F /  -1.0 °C 30.1in /  1018.2hPa NNE 2mph /  3.2km/h 3.6mph /  5.8km/h 88% 0in /  0.0mm
06:31 34 °F /  1.1 °C 30.2 °F /  -1.0 °C 30.1in /  1018.8hPa Calm   3.6mph /  5.8km/h 88% 0in /  0.0mm
06:36 34 °F /  1.1 °C 30.2 °F /  -1.0 °C 30.1in /  1018.8hPa North 2.7mph /  4.3km/h 4.3mph /  6.9km/h 88% 0in /  0.0mm
06:41 34 °F /  1.1 °C 30.2 °F /  -1.0 °C 30.1in /  1018.8hPa Calm   4.3mph /  6.9km/h 88% 0in /  0.0mm
06:46 34 °F /  1.1 °C 30.2 °F /  -1.0 °C 30.1in /  1018.2hPa NNE 2.9mph /  4.7km/h 4.7mph /  7.6km/h 88% 0in /  0.0mm
06:51 34 °F /  1.1 °C 30.2 °F /  -1.0 °C 30.1in /  1018.2hPa North 4.3mph /  6.9km/h 5.6mph /  9.0km/h 88% 0in /  0.0mm
06:56 34 °F /  1.1 °C 30.2 °F /  -1.0 °C 30.1in /  1018.2hPa Calm   5.6mph /  9.0km/h 88% 0in /  0.0mm
07:01 34.2 °F /  1.2 °C 32 °F /  0.0 °C 30.1in /  1018.8hPa Calm   4.9mph /  7.9km/h 88% 0in /  0.0mm
07:06 34.2 °F /  1.2 °C 32 °F /  0.0 °C 30.1in /  1018.8hPa North 1.3mph /  2.1km/h 4.9mph /  7.9km/h 88% 0in /  0.0mm
07:11 34 °F /  1.1 °C 30.2 °F /  -1.0 °C 30.1in /  1018.8hPa North 1.1mph /  1.8km/h 4.9mph /  7.9km/h 88% 0in /  0.0mm
07:16 34 °F /  1.1 °C 30.2 °F /  -1.0 °C 30.1in /  1018.8hPa North 3.6mph /  5.8km/h 4.9mph /  7.9km/h 88% 0in /  0.0mm
07:21 34.2 °F /  1.2 °C 32 °F /  0.0 °C 30.1in /  1018.8hPa NNE 3.6mph /  5.8km/h 5.4mph /  8.7km/h 89% 0in /  0.0mm
07:26 34.2 °F /  1.2 °C 32 °F /  0.0 °C 30.1in /  1018.8hPa NE 4mph /  6.4km/h 6.5mph /  10.5km/h 89% 0in /  0.0mm
07:31 34.2 °F /  1.2 °C 32 °F /  0.0 °C 30.1in /  1018.8hPa NNE 3.8mph /  6.1km/h 6.5mph /  10.5km/h 89% 0in /  0.0mm
07:36 34.2 °F /  1.2 °C 32 °F /  0.0 °C 30.1in /  1018.8hPa NNE 3.4mph /  5.5km/h 6mph /  9.7km/h 89% 0in /  0.0mm
07:41 34.2 °F /  1.2 °C 32 °F /  0.0 °C 30.1in /  1018.8hPa North 1.6mph /  2.6km/h 5.6mph /  9.0km/h 89% 0in /  0.0mm
07:46 34.2 °F /  1.2 °C 32 °F /  0.0 °C 30.1in /  1018.8hPa North 4.3mph /  6.9km/h 4.7mph /  7.6km/h 89% 0in /  0.0mm
07:51 34.3 °F /  1.3 °C 32 °F /  0.0 °C 30.1in /  1018.8hPa Calm   6mph /  9.7km/h 89% 0in /  0.0mm
07:56 34.3 °F /  1.3 °C 32 °F /  0.0 °C 30.1in /  1018.8hPa NNE 5.4mph /  8.7km/h 6.5mph /  10.5km/h 89% 0in /  0.0mm
08:01 34.5 °F /  1.4 °C 32 °F /  0.0 °C 30.1in /  1018.8hPa North 3.6mph /  5.8km/h 6.5mph /  10.5km/h 89% 0in /  0.0mm
08:06 34.5 °F /  1.4 °C 32 °F /  0.0 °C 30.1in /  1018.8hPa North 2mph /  3.2km/h 5.8mph /  9.3km/h 89% 0in /  0.0mm
08:11 34.5 °F /  1.4 °C 32 °F /  0.0 °C 30.1in /  1018.8hPa North 3.6mph /  5.8km/h 5.6mph /  9.0km/h 89% 0in /  0.0mm
08:16 34.5 °F /  1.4 °C 32 °F /  0.0 °C 30.1in /  1018.8hPa North 3.1mph /  5.0km/h 5.8mph /  9.3km/h 88% 0in /  0.0mm
08:21 34.5 °F /  1.4 °C 32 °F /  0.0 °C 30.1in /  1018.8hPa NE 3.6mph /  5.8km/h 6.3mph /  10.1km/h 88% 0in /  0.0mm
08:26 34.5 °F /  1.4 °C 32 °F /  0.0 °C 30.1in /  1018.8hPa NE 4.7mph /  7.6km/h 6.3mph /  10.1km/h 88% 0in /  0.0mm
08:31 34.5 °F /  1.4 °C 32 °F /  0.0 °C 30.1in /  1018.8hPa NNE 4mph /  6.4km/h 6mph /  9.7km/h 88% 0in /  0.0mm
08:36 34.3 °F /  1.3 °C 32 °F /  0.0 °C 30.1in /  1018.8hPa NNW 3.6mph /  5.8km/h 6mph /  9.7km/h 88% 0in /  0.0mm
08:41 34.5 °F /  1.4 °C 32 °F /  0.0 °C 30.1in /  1018.8hPa NNE 3.8mph /  6.1km/h 6mph /  9.7km/h 88% 0in /  0.0mm
08:46 34.5 °F /  1.4 °C 32 °F /  0.0 °C 30.1in /  1018.8hPa NNE 1.1mph /  1.8km/h 6mph /  9.7km/h 88% 0in /  0.0mm
08:51 34.5 °F /  1.4 °C 32 °F /  0.0 °C 30.1in /  1018.8hPa NNE 3.6mph /  5.8km/h 4.9mph /  7.9km/h 88% 0in /  0.0mm
08:56 34.5 °F /  1.4 °C 32 °F /  0.0 °C 30.1in /  1018.8hPa NE 2.7mph /  4.3km/h 6.5mph /  10.5km/h 88% 0in /  0.0mm
09:01 34.5 °F /  1.4 °C 32 °F /  0.0 °C 30.1in /  1019.9hPa Calm   6.5mph /  10.5km/h 88% 0in /  0.0mm
09:06 34.7 °F /  1.5 °C 32 °F /  0.0 °C 30.1in /  1019.9hPa Calm   4.7mph /  7.6km/h 89% 0in /  0.0mm
09:12 34.7 °F /  1.5 °C 32 °F /  0.0 °C 30.1in /  1019.9hPa Calm   4.3mph /  6.9km/h 89% 0in /  0.0mm
09:17 34.9 °F /  1.6 °C 32 °F /  0.0 °C 30.1in /  1019.9hPa Calm   3.8mph /  6.1km/h 89% 0in /  0.0mm
09:22 35.1 °F /  1.7 °C 32 °F /  0.0 °C 30.1in /  1019.9hPa North 3.6mph /  5.8km/h 5.6mph /  9.0km/h 89% 0in /  0.0mm
09:27 35.1 °F /  1.7 °C 32 °F /  0.0 °C 30.1in /  1019.9hPa NE 4.3mph /  6.9km/h 6.3mph /  10.1km/h 89% 0in /  0.0mm
09:32 35.2 °F /  1.8 °C 32 °F /  0.0 °C 30.1in /  1019.9hPa NNE 4mph /  6.4km/h 6.3mph /  10.1km/h 89% 0in /  0.0mm
09:37 35.4 °F /  1.9 °C 33.8 °F /  1.0 °C 30.1in /  1019.9hPa Calm   6mph /  9.7km/h 89% 0in /  0.0mm
09:42 35.6 °F /  2.0 °C 33.8 °F /  1.0 °C 30.1in /  1019.9hPa NNE 3.8mph /  6.1km/h 6.3mph /  10.1km/h 88% 0in /  0.0mm
09:47 35.8 °F /  2.1 °C 33.8 °F /  1.0 °C 30.1in /  1018.8hPa NE 3.6mph /  5.8km/h 6.3mph /  10.1km/h 88% 0in /  0.0mm
09:52 36 °F /  2.2 °C 33.8 °F /  1.0 °C 30.1in /  1018.8hPa NE 1.6mph /  2.6km/h 4.9mph /  7.9km/h 88% 0in /  0.0mm
09:57 36.1 °F /  2.3 °C 33.8 °F /  1.0 °C 30.1in /  1018.8hPa NE 3.1mph /  5.0km/h 4.9mph /  7.9km/h 88% 0in /  0.0mm
10:02 36.3 °F /  2.4 °C 33.8 °F /  1.0 °C 30.1in /  1019.9hPa Calm   4.3mph /  6.9km/h 88% 0in /  0.0mm
10:07 36.3 °F /  2.4 °C 33.8 °F /  1.0 °C 30.1in /  1019.9hPa Calm   3.1mph /  5.0km/h 88% 0in /  0.0mm
10:12 36.5 °F /  2.5 °C 33.8 °F /  1.0 °C 30.1in /  1019.9hPa Calm   2mph /  3.2km/h 88% 0in /  0.0mm
10:17 36.7 °F /  2.6 °C 33.8 °F /  1.0 °C 30.2in /  1020.9hPa North 2.9mph /  4.7km/h 2.9mph /  4.7km/h 88% 0in /  0.0mm
10:22 36.7 °F /  2.6 °C 33.8 °F /  1.0 °C 30.2in /  1020.9hPa NNE 2.7mph /  4.3km/h 3.6mph /  5.8km/h 88% 0in /  0.0mm
10:27 37 °F /  2.8 °C 33.8 °F /  1.0 °C 30.2in /  1020.9hPa NE 3.4mph /  5.5km/h 4mph /  6.4km/h 88% 0in /  0.0mm
10:32 37.2 °F /  2.9 °C 33.8 °F /  1.0 °C 30.2in /  1020.9hPa North 6mph /  9.7km/h 6mph /  9.7km/h 88% 0in /  0.0mm
10:37 37.6 °F /  3.1 °C 33.8 °F /  1.0 °C 30.2in /  1020.9hPa North 7.4mph /  11.9km/h 8.1mph /  13.0km/h 87% 0in /  0.0mm
10:42 37.9 °F /  3.3 °C 35.6 °F /  2.0 °C 30.2in /  1020.9hPa NE 4.9mph /  7.9km/h 8.1mph /  13.0km/h 87% 0in /  0.0mm
10:48 38.3 °F /  3.5 °C 35.6 °F /  2.0 °C 30.2in /  1020.9hPa NE 1.6mph /  2.6km/h 7.8mph /  12.6km/h 86% 0in /  0.0mm
10:53 38.7 °F /  3.7 °C 35.6 °F /  2.0 °C 30.2in /  1020.9hPa NNE 1.6mph /  2.6km/h 7.8mph /  12.6km/h 86% 0in /  0.0mm
10:58 39 °F /  3.9 °C 35.6 °F /  2.0 °C 30.2in /  1020.9hPa ENE 5.8mph /  9.3km/h 6.3mph /  10.1km/h 85% 0in /  0.0mm
11:03 39.2 °F /  4.0 °C 35.6 °F /  2.0 °C 30.2in /  1020.9hPa ENE 4.3mph /  6.9km/h 6.3mph /  10.1km/h 84% 0in /  0.0mm
11:08 39.4 °F /  4.1 °C 35.6 °F /  2.0 °C 30.2in /  1020.9hPa Calm   6.3mph /  10.1km/h 84% 0in /  0.0mm
11:13 39.4 °F /  4.1 °C 35.6 °F /  2.0 °C 30.2in /  1020.9hPa Calm   5.4mph /  8.7km/h 84% 0in /  0.0mm
11:18 39.7 °F /  4.3 °C 35.6 °F /  2.0 °C 30.2in /  1020.9hPa NE 1.3mph /  2.1km/h 4.9mph /  7.9km/h 83% 0in /  0.0mm
11:23 39.9 °F /  4.4 °C 35.6 °F /  2.0 °C 30.2in /  1020.9hPa Calm   5.6mph /  9.0km/h 82% 0in /  0.0mm
11:28 40.5 °F /  4.7 °C 35.6 °F /  2.0 °C 30.2in /  1020.9hPa Calm   5.6mph /  9.0km/h 82% 0in /  0.0mm
11:33 41.2 °F /  5.1 °C 35.6 °F /  2.0 °C 30.2in /  1020.9hPa ESE 2.5mph /  4.0km/h 4mph /  6.4km/h 81% 0in /  0.0mm
11:38 42.1 °F /  5.6 °C 37.4 °F /  3.0 °C 30.2in /  1020.9hPa Calm   4mph /  6.4km/h 81% 0in /  0.0mm
11:43 42.8 °F /  6.0 °C 37.4 °F /  3.0 °C 30.2in /  1020.9hPa Calm   4mph /  6.4km/h 79% 0in /  0.0mm
11:48 43.5 °F /  6.4 °C 37.4 °F /  3.0 °C 30.2in /  1020.9hPa ESE 0.9mph /  1.4km/h 2.2mph /  3.5km/h 78% 0in /  0.0mm
11:53 44.1 °F /  6.7 °C 37.4 °F /  3.0 °C 30.2in /  1020.9hPa Calm   1.3mph /  2.1km/h 78% 0in /  0.0mm
11:58 44.2 °F /  6.8 °C 37.4 °F /  3.0 °C 30.2in /  1020.9hPa Calm   1.1mph /  1.8km/h 77% 0in /  0.0mm
12:03 44.8 °F /  7.1 °C 37.4 °F /  3.0 °C 30.2in /  1020.9hPa Calm   1.6mph /  2.6km/h 75% 0in /  0.0mm
12:08 45.5 °F /  7.5 °C 39.2 °F /  4.0 °C 30.2in /  1020.9hPa Calm   1.6mph /  2.6km/h 75% 0in /  0.0mm
12:13 46 °F /  7.8 °C 37.4 °F /  3.0 °C 30.2in /  1020.9hPa Calm     74% 0in /  0.0mm
12:18 46.2 °F /  7.9 °C 37.4 °F /  3.0 °C 30.2in /  1020.9hPa Calm   3.6mph /  5.8km/h 73% 0in /  0.0mm
12:23 46 °F /  7.8 °C 37.4 °F /  3.0 °C 30.2in /  1020.9hPa Calm   3.6mph /  5.8km/h 72% 0in /  0.0mm
12:28 46 °F /  7.8 °C 37.4 °F /  3.0 °C 30.2in /  1020.9hPa Calm   1.6mph /  2.6km/h 72% 0in /  0.0mm
12:33 46.4 °F /  8.0 °C 37.4 °F /  3.0 °C 30.2in /  1020.9hPa Calm   0.9mph /  1.4km/h 70% 0in /  0.0mm
12:38 46.9 °F /  8.3 °C 39.2 °F /  4.0 °C 30.2in /  1020.9hPa Calm   1.6mph /  2.6km/h 71% 0in /  0.0mm
12:43 47.3 °F /  8.5 °C 37.4 °F /  3.0 °C 30.2in /  1020.9hPa Calm   3.6mph /  5.8km/h 69% 0in /  0.0mm
12:49 47.5 °F /  8.6 °C 37.4 °F /  3.0 °C 30.2in /  1020.9hPa Calm   3.6mph /  5.8km/h 68% 0in /  0.0mm
12:54 48 °F /  8.9 °C 37.4 °F /  3.0 °C 30.2in /  1020.9hPa Calm   1.6mph /  2.6km/h 67% 0in /  0.0mm
12:59 48.2 °F /  9.0 °C 37.4 °F /  3.0 °C 30.2in /  1020.9hPa Calm   1.6mph /  2.6km/h 67% 0in /  0.0mm
13:04 47.8 °F /  8.8 °C 37.4 °F /  3.0 °C 30.2in /  1020.9hPa Calm   0.9mph /  1.4km/h 67% 0in /  0.0mm
13:09 47.7 °F /  8.7 °C 37.4 °F /  3.0 °C 30.2in /  1020.9hPa Calm   4.7mph /  7.6km/h 66% 0in /  0.0mm
13:14 48 °F /  8.9 °C 37.4 °F /  3.0 °C 30.2in /  1020.9hPa Calm   4.7mph /  7.6km/h 67% 0in /  0.0mm
13:19 48.2 °F /  9.0 °C 37.4 °F /  3.0 °C 30.2in /  1020.9hPa Calm   4.9mph /  7.9km/h 66% 0in /  0.0mm
13:24 48.2 °F /  9.0 °C 37.4 °F /  3.0 °C 30.2in /  1020.9hPa NNE 4mph /  6.4km/h 4.9mph /  7.9km/h 65% 0in /  0.0mm
13:29 48.2 °F /  9.0 °C 37.4 °F /  3.0 °C 30.2in /  1020.9hPa NE 4.7mph /  7.6km/h 6mph /  9.7km/h 65% 0in /  0.0mm
13:34 48.2 °F /  9.0 °C 37.4 °F /  3.0 °C 30.2in /  1020.9hPa Calm   6.5mph /  10.5km/h 65% 0in /  0.0mm
13:39 48.2 °F /  9.0 °C 37.4 °F /  3.0 °C 30.2in /  1020.9hPa NNW 1.6mph /  2.6km/h 6.5mph /  10.5km/h 64% 0in /  0.0mm
13:44 48.4 °F /  9.1 °C 37.4 °F /  3.0 °C 30.2in /  1020.9hPa Calm   6.3mph /  10.1km/h 65% 0in /  0.0mm
13:49 48.6 °F /  9.2 °C 37.4 °F /  3.0 °C 30.2in /  1020.9hPa NE 1.1mph /  1.8km/h 4.9mph /  7.9km/h 65% 0in /  0.0mm
13:54 48.9 °F /  9.4 °C 37.4 °F /  3.0 °C 30.2in /  1020.9hPa NE 2.7mph /  4.3km/h 4.3mph /  6.9km/h 65% 0in /  0.0mm
13:59 49.1 °F /  9.5 °C 39.2 °F /  4.0 °C 30.2in /  1020.9hPa Calm   4.3mph /  6.9km/h 65% 0in /  0.0mm
14:04 49.5 °F /  9.7 °C 37.4 °F /  3.0 °C 30.2in /  1020.9hPa NE 1.3mph /  2.1km/h 4.3mph /  6.9km/h 64% 0in /  0.0mm
14:09 49.6 °F /  9.8 °C 37.4 °F /  3.0 °C 30.2in /  1020.9hPa North 2.5mph /  4.0km/h 5.8mph /  9.3km/h 64% 0in /  0.0mm
14:14 49.5 °F /  9.7 °C 37.4 °F /  3.0 °C 30.2in /  1020.9hPa Calm   5.8mph /  9.3km/h 63% 0in /  0.0mm
14:19 49.6 °F /  9.8 °C 37.4 °F /  3.0 °C 30.2in /  1020.9hPa Calm   6mph /  9.7km/h 62% 0in /  0.0mm
14:24 49.6 °F /  9.8 °C 37.4 °F /  3.0 °C 30.2in /  1020.9hPa NNE 3.6mph /  5.8km/h 6mph /  9.7km/h 61% 0in /  0.0mm
14:29 49.8 °F /  9.9 °C 37.4 °F /  3.0 °C 30.2in /  1020.9hPa Calm   5.8mph /  9.3km/h 61% 0in /  0.0mm
14:35 50 °F /  10.0 °C 37.4 °F /  3.0 °C 30.2in /  1020.9hPa NNW 3.6mph /  5.8km/h 6.3mph /  10.1km/h 61% 0in /  0.0mm
14:40 50.2 °F /  10.1 °C 37.4 °F /  3.0 °C 30.2in /  1020.9hPa Calm   6.3mph /  10.1km/h 60% 0in /  0.0mm
14:45 50.4 °F /  10.2 °C 37.4 °F /  3.0 °C 30.2in /  1020.9hPa North 2.9mph /  4.7km/h 5.4mph /  8.7km/h 59% 0in /  0.0mm
14:50 50.5 °F /  10.3 °C 37.4 °F /  3.0 °C 30.2in /  1020.9hPa North 2.2mph /  3.5km/h 6.3mph /  10.1km/h 59% 0in /  0.0mm
14:55 50.7 °F /  10.4 °C 37.4 °F /  3.0 °C 30.2in /  1020.9hPa Calm   6.3mph /  10.1km/h 59% 0in /  0.0mm
15:00 50.7 °F /  10.4 °C 37.4 °F /  3.0 °C 30.2in /  1020.9hPa Calm   5.4mph /  8.7km/h 58% 0in /  0.0mm
15:05 50.9 °F /  10.5 °C 37.4 °F /  3.0 °C 30.2in /  1020.9hPa NE 2.2mph /  3.5km/h 2.9mph /  4.7km/h 58% 0in /  0.0mm
15:10 51.3 °F /  10.7 °C 37.4 °F /  3.0 °C 30.2in /  1020.9hPa Calm   2.9mph /  4.7km/h 57% 0in /  0.0mm
15:15 51.3 °F /  10.7 °C 37.4 °F /  3.0 °C 30.2in /  1020.9hPa Calm   2.5mph /  4.0km/h 57% 0in /  0.0mm
15:20 51.3 °F /  10.7 °C 35.6 °F /  2.0 °C 30.2in /  1020.9hPa Calm   1.6mph /  2.6km/h 56% 0in /  0.0mm
15:25 51.4 °F /  10.8 °C 35.6 °F /  2.0 °C 30.2in /  1020.9hPa Calm   3.4mph /  5.5km/h 56% 0in /  0.0mm
15:30 51.6 °F /  10.9 °C 37.4 °F /  3.0 °C 30.2in /  1020.9hPa Calm   3.4mph /  5.5km/h 56% 0in /  0.0mm
15:35 51.4 °F /  10.8 °C 35.6 °F /  2.0 °C 30.2in /  1020.9hPa NE 3.6mph /  5.8km/h 4mph /  6.4km/h 55% 0in /  0.0mm
15:40 51.4 °F /  10.8 °C 35.6 °F /  2.0 °C 30.2in /  1020.9hPa Calm   4.3mph /  6.9km/h 54% 0in /  0.0mm
15:45 51.3 °F /  10.7 °C 35.6 °F /  2.0 °C 30.1in /  1019.9hPa Calm   4.3mph /  6.9km/h 54% 0in /  0.0mm
15:50 51.3 °F /  10.7 °C 35.6 °F /  2.0 °C 30.1in /  1019.9hPa Calm   2.2mph /  3.5km/h 54% 0in /  0.0mm
15:55 51.3 °F /  10.7 °C 35.6 °F /  2.0 °C 30.1in /  1019.9hPa ENE 3.1mph /  5.0km/h 4mph /  6.4km/h 54% 0in /  0.0mm
16:00 50.9 °F /  10.5 °C 35.6 °F /  2.0 °C 30.1in /  1019.9hPa Calm   4.7mph /  7.6km/h 53% 0in /  0.0mm
16:02 50.9 °F /  10.5 °C 35.6 °F /  2.0 °C 30.1in /  1019.9hPa Calm   4.7mph /  7.6km/h 53% 0in /  0.0mm
16:07 50.7 °F /  10.4 °C 33.8 °F /  1.0 °C 30.1in /  1019.9hPa Calm   3.8mph /  6.1km/h 53% 0in /  0.0mm
16:12 50.7 °F /  10.4 °C 33.8 °F /  1.0 °C 30.1in /  1019.9hPa Calm   3.8mph /  6.1km/h 53% 0in /  0.0mm
16:17 50.5 °F /  10.3 °C 33.8 °F /  1.0 °C 30.1in /  1019.9hPa Calm     52% 0in /  0.0mm
16:22 50.5 °F /  10.3 °C 33.8 °F /  1.0 °C 30.1in /  1019.9hPa Calm   3.8mph /  6.1km/h 53% 0in /  0.0mm
16:28 50.5 °F /  10.3 °C 33.8 °F /  1.0 °C 30.1in /  1019.9hPa Calm   3.8mph /  6.1km/h 53% 0in /  0.0mm
16:33 50.4 °F /  10.2 °C 33.8 °F /  1.0 °C 30.2in /  1020.9hPa Calm     53% 0in /  0.0mm
16:38 50.2 °F /  10.1 °C 33.8 °F /  1.0 °C 30.2in /  1020.9hPa Calm     53% 0in /  0.0mm
16:43 49.8 °F /  9.9 °C 33.8 °F /  1.0 °C 30.2in /  1020.9hPa Calm   2mph /  3.2km/h 54% 0in /  0.0mm
16:48 49.5 °F /  9.7 °C 33.8 °F /  1.0 °C 30.2in /  1020.9hPa Calm   2mph /  3.2km/h 54% 0in /  0.0mm
16:53 49.3 °F /  9.6 °C 33.8 °F /  1.0 °C 30.2in /  1020.9hPa Calm   1.1mph /  1.8km/h 54% 0in /  0.0mm
16:58 48.9 °F /  9.4 °C 33.8 °F /  1.0 °C 30.2in /  1020.9hPa Calm   1.1mph /  1.8km/h 54% 0in /  0.0mm
17:03 48.7 °F /  9.3 °C 33.8 °F /  1.0 °C 30.2in /  1021.9hPa Calm     54% 0in /  0.0mm
17:08 48.6 °F /  9.2 °C 33.8 °F /  1.0 °C 30.2in /  1021.9hPa Calm     55% 0in /  0.0mm
17:13 48.4 °F /  9.1 °C 33.8 °F /  1.0 °C 30.2in /  1021.9hPa Calm     55% 0in /  0.0mm
17:18 48.2 °F /  9.0 °C 33.8 °F /  1.0 °C 30.2in /  1020.9hPa Calm     55% 0in /  0.0mm
17:23 48 °F /  8.9 °C 33.8 °F /  1.0 °C 30.2in /  1020.9hPa Calm     56% 0in /  0.0mm
17:28 47.7 °F /  8.7 °C 32 °F /  0.0 °C 30.2in /  1020.9hPa Calm     55% 0in /  0.0mm
17:33 47.5 °F /  8.6 °C 32 °F /  0.0 °C 30.2in /  1021.9hPa Calm     55% 0in /  0.0mm
17:38 47.3 °F /  8.5 °C 32 °F /  0.0 °C 30.2in /  1021.9hPa Calm     55% 0in /  0.0mm
17:43 47.1 °F /  8.4 °C 32 °F /  0.0 °C 30.2in /  1021.9hPa Calm     55% 0in /  0.0mm
17:48 46.6 °F /  8.1 °C 32 °F /  0.0 °C 30.2in /  1021.9hPa Calm     55% 0in /  0.0mm
17:54 45.9 °F /  7.7 °C 30.2 °F /  -1.0 °C 30.2in /  1021.9hPa Calm     56% 0in /  0.0mm
17:59 45.1 °F /  7.3 °C 30.2 °F /  -1.0 °C 30.2in /  1021.9hPa Calm     57% 0in /  0.0mm
18:04 44.4 °F /  6.9 °C 30.2 °F /  -1.0 °C 30.2in /  1021.9hPa Calm     58% 0in /  0.0mm
18:09 43.7 °F /  6.5 °C 30.2 °F /  -1.0 °C 30.2in /  1021.9hPa Calm     58% 0in /  0.0mm
18:14 42.8 °F /  6.0 °C 30.2 °F /  -1.0 °C 30.2in /  1021.9hPa Calm     59% 0in /  0.0mm
18:19 42.3 °F /  5.7 °C 30.2 °F /  -1.0 °C 30.2in /  1021.9hPa Calm     60% 0in /  0.0mm
18:24 41.4 °F /  5.2 °C 28.4 °F /  -2.0 °C 30.2in /  1021.9hPa Calm     61% 0in /  0.0mm
18:29 40.8 °F /  4.9 °C 30.2 °F /  -1.0 °C 30.2in /  1021.9hPa Calm     64% 0in /  0.0mm
18:34 40.6 °F /  4.8 °C 30.2 °F /  -1.0 °C 30.2in /  1021.9hPa Calm     65% 0in /  0.0mm
18:39 40.6 °F /  4.8 °C 30.2 °F /  -1.0 °C 30.2in /  1021.9hPa NNW 0.9mph /  1.4km/h 2.2mph /  3.5km/h 66% 0in /  0.0mm
18:44 40.6 °F /  4.8 °C 30.2 °F /  -1.0 °C 30.2in /  1021.9hPa Calm   2.2mph /  3.5km/h 67% 0in /  0.0mm
18:49 40.8 °F /  4.9 °C 32 °F /  0.0 °C 30.2in /  1021.9hPa Calm   2mph /  3.2km/h 68% 0in /  0.0mm
18:54 41 °F /  5.0 °C 32 °F /  0.0 °C 30.2in /  1021.9hPa Calm     68% 0in /  0.0mm
18:59 40.6 °F /  4.8 °C 30.2 °F /  -1.0 °C 30.2in /  1022.9hPa North 2.5mph /  4.0km/h 3.1mph /  5.0km/h 69% 0in /  0.0mm
19:05 40.5 °F /  4.7 °C 30.2 °F /  -1.0 °C 30.2in /  1022.9hPa NNE 3.4mph /  5.5km/h 4mph /  6.4km/h 69% 0in /  0.0mm
19:10 40.8 °F /  4.9 °C 32 °F /  0.0 °C 30.2in /  1022.9hPa North 1.6mph /  2.6km/h 4mph /  6.4km/h 70% 0in /  0.0mm
19:15 41 °F /  5.0 °C 33.8 °F /  1.0 °C 30.2in /  1022.9hPa Calm   4mph /  6.4km/h 71% 0in /  0.0mm
19:20 41.2 °F /  5.1 °C 33.8 °F /  1.0 °C 30.2in /  1022.9hPa North 2mph /  3.2km/h 3.6mph /  5.8km/h 72% 0in /  0.0mm
19:25 41 °F /  5.0 °C 33.8 °F /  1.0 °C 30.2in /  1022.9hPa North 3.1mph /  5.0km/h 4.7mph /  7.6km/h 72% 0in /  0.0mm
19:30 40.8 °F /  4.9 °C 33.8 °F /  1.0 °C 30.2in /  1022.9hPa NNW 1.1mph /  1.8km/h 4.7mph /  7.6km/h 73% 0in /  0.0mm
19:35 40.6 °F /  4.8 °C 33.8 °F /  1.0 °C 30.2in /  1022.9hPa Calm   4mph /  6.4km/h 74% 0in /  0.0mm
19:40 40.3 °F /  4.6 °C 33.8 °F /  1.0 °C 30.2in /  1022.9hPa Calm   3.6mph /  5.8km/h 74% 0in /  0.0mm
19:45 39.9 °F /  4.4 °C 32 °F /  0.0 °C 30.2in /  1023.9hPa Calm     74% 0in /  0.0mm
19:50 39.7 °F /  4.3 °C 33.8 °F /  1.0 °C 30.2in /  1023.9hPa Calm   2.2mph /  3.5km/h 75% 0in /  0.0mm
19:55 39.4 °F /  4.1 °C 32 °F /  0.0 °C 30.2in /  1023.9hPa Calm   2.2mph /  3.5km/h 75% 0in /  0.0mm
20:00 38.8 °F /  3.8 °C 32 °F /  0.0 °C 30.2in /  1022.9hPa Calm     76% 0in /  0.0mm
20:05 38.3 °F /  3.5 °C 32 °F /  0.0 °C 30.2in /  1022.9hPa Calm     76% 0in /  0.0mm
20:10 37.9 °F /  3.3 °C 32 °F /  0.0 °C 30.2in /  1022.9hPa Calm     76% 0in /  0.0mm
20:15 37 °F /  2.8 °C 30.2 °F /  -1.0 °C 30.2in /  1022.9hPa Calm     76% 0in /  0.0mm
20:20 36.5 °F /  2.5 °C 30.2 °F /  -1.0 °C 30.2in /  1022.9hPa Calm     77% 0in /  0.0mm
20:25 35.8 °F /  2.1 °C 30.2 °F /  -1.0 °C 30.2in /  1022.9hPa Calm     77% 0in /  0.0mm
20:30 35.4 °F /  1.9 °C 30.2 °F /  -1.0 °C 30.2in /  1022.9hPa Calm     78% 0in /  0.0mm
20:35 34.9 °F /  1.6 °C 28.4 °F /  -2.0 °C 30.2in /  1022.9hPa Calm     78% 0in /  0.0mm
20:40 34.5 °F /  1.4 °C 28.4 °F /  -2.0 °C 30.2in /  1022.9hPa Calm   0.9mph /  1.4km/h 78% 0in /  0.0mm
20:46 34.5 °F /  1.4 °C 28.4 °F /  -2.0 °C 30.2in /  1022.9hPa Calm   0.9mph /  1.4km/h 78% 0in /  0.0mm
20:52 34.3 °F /  1.3 °C 28.4 °F /  -2.0 °C 30.2in /  1022.9hPa Calm     79% 0in /  0.0mm
20:57 34.3 °F /  1.3 °C 30.2 °F /  -1.0 °C 30.2in /  1022.9hPa Calm     80% 0in /  0.0mm
21:02 34.2 °F /  1.2 °C 30.2 °F /  -1.0 °C 30.2in /  1021.9hPa Calm     81% 0in /  0.0mm
21:07 34 °F /  1.1 °C 28.4 °F /  -2.0 °C 30.2in /  1021.9hPa Calm     81% 0in /  0.0mm
21:12 34 °F /  1.1 °C 30.2 °F /  -1.0 °C 30.2in /  1021.9hPa Calm     82% 0in /  0.0mm
21:17 33.8 °F /  1.0 °C 30.2 °F /  -1.0 °C 30.2in /  1022.9hPa Calm     82% 0in /  0.0mm
21:22 33.4 °F /  0.8 °C 30.2 °F /  -1.0 °C 30.2in /  1022.9hPa Calm     82% 0in /  0.0mm
21:27 33.3 °F /  0.7 °C 28.4 °F /  -2.0 °C 30.2in /  1022.9hPa Calm     83% 0in /  0.0mm
21:32 33.1 °F /  0.6 °C 28.4 °F /  -2.0 °C 30.2in /  1022.9hPa Calm     83% 0in /  0.0mm
21:37 32.5 °F /  0.3 °C 28.4 °F /  -2.0 °C 30.2in /  1022.9hPa Calm     83% 0in /  0.0mm
21:42 32.2 °F /  0.1 °C 28.4 °F /  -2.0 °C 30.2in /  1022.9hPa Calm     83% 0in /  0.0mm
21:47 31.6 °F /  -0.2 °C 26.6 °F /  -3.0 °C 30.2in /  1022.9hPa Calm     83% 0in /  0.0mm
21:52 31.5 °F /  -0.3 °C 24.8 °F /  -4.0 °C 30.2in /  1022.9hPa Calm     83% 0in /  0.0mm
21:57 31.3 °F /  -0.4 °C 24.8 °F /  -4.0 °C 30.2in /  1022.9hPa Calm     83% 0in /  0.0mm
22:02 30.9 °F /  -0.6 °C 24.8 °F /  -4.0 °C 30.2in /  1022.9hPa Calm     84% 0in /  0.0mm
22:07 30.2 °F /  -1.0 °C 24.8 °F /  -4.0 °C 30.2in /  1022.9hPa Calm     84% 0in /  0.0mm
22:12 30 °F /  -1.1 °C 24.8 °F /  -4.0 °C 30.2in /  1022.9hPa Calm     84% 0in /  0.0mm
22:17 30.2 °F /  -1.0 °C 24.8 °F /  -4.0 °C 30.2in /  1022.9hPa Calm     85% 0in /  0.0mm
22:22 30.4 °F /  -0.9 °C 24.8 °F /  -4.0 °C 30.2in /  1022.9hPa Calm     85% 0in /  0.0mm
22:28 30.2 °F /  -1.0 °C 24.8 °F /  -4.0 °C 30.2in /  1022.9hPa Calm     86% 0in /  0.0mm
22:33 30.4 °F /  -0.9 °C 24.8 °F /  -4.0 °C 30.2in /  1022.9hPa Calm     85% 0in /  0.0mm
22:38 30.2 °F /  -1.0 °C 24.8 °F /  -4.0 °C 30.2in /  1022.9hPa Calm     86% 0in /  0.0mm
22:43 30.2 °F /  -1.0 °C 24.8 °F /  -4.0 °C 30.2in /  1022.9hPa Calm     86% 0in /  0.0mm
22:48 30.2 °F /  -1.0 °C 24.8 °F /  -4.0 °C 30.2in /  1022.9hPa Calm     86% 0in /  0.0mm
22:53 30 °F /  -1.1 °C 24.8 °F /  -4.0 °C 30.2in /  1022.9hPa Calm     86% 0in /  0.0mm
22:58 30 °F /  -1.1 °C 26.6 °F /  -3.0 °C 30.2in /  1022.9hPa Calm     87% 0in /  0.0mm
23:03 30 °F /  -1.1 °C 26.6 °F /  -3.0 °C 30.2in /  1022.9hPa Calm     87% 0in /  0.0mm
23:08 30 °F /  -1.1 °C 26.6 °F /  -3.0 °C 30.2in /  1022.9hPa Calm     87% 0in /  0.0mm
23:13 30 °F /  -1.1 °C 26.6 °F /  -3.0 °C 30.2in /  1022.9hPa Calm     87% 0in /  0.0mm
23:18 29.8 °F /  -1.2 °C 24.8 °F /  -4.0 °C 30.2in /  1022.9hPa Calm     87% 0in /  0.0mm
23:23 29.7 °F /  -1.3 °C 24.8 °F /  -4.0 °C 30.2in /  1022.9hPa Calm     88% 0in /  0.0mm
23:28 29.5 °F /  -1.4 °C 24.8 °F /  -4.0 °C 30.2in /  1022.9hPa Calm     88% 0in /  0.0mm
23:33 29.3 °F /  -1.5 °C 24.8 °F /  -4.0 °C 30.2in /  1022.9hPa Calm     88% 0in /  0.0mm
23:38 28.9 °F /  -1.7 °C 24.8 °F /  -4.0 °C 30.2in /  1022.9hPa Calm     87% 0in /  0.0mm
23:43 28.9 °F /  -1.7 °C 24.8 °F /  -4.0 °C 30.2in /  1022.9hPa Calm     88% 0in /  0.0mm
23:48 29.3 °F /  -1.5 °C 24.8 °F /  -4.0 °C 30.2in /  1022.9hPa Calm     88% 0in /  0.0mm
23:53 30.2 °F /  -1.0 °C 26.6 °F /  -3.0 °C 30.2in /  1022.9hPa Calm     89% 0in /  0.0mm
23:58 30.4 °F /  -0.9 °C 26.6 °F /  -3.0 °C 30.2in /  1022.9hPa Calm     89% 0in /  0.0mm
Données Historique de Météo Turbie

Mise a jour : 18/06/2018 00:21:13
Généré par Cumulus 1.9.4 (1099)